Time;durP1;ratioP1;P1;durP2;ratioP2;P2;SDS_P1;SDS_P2;PMS_P1;PMS_P2;Temp;Humidity;BMP_temperature;BMP_pressure;BME280_temperature;BME280_humidity;BME280_pressure;Samples;Min_cycle;Max_cycle;Signal;HPM_P1;HPM_P2
2023/09/09 00:00:36;;;;;;;;;;;;;;;21.49;39.37;101851.48;106831;1270;25347;-51
2023/09/09 00:03:03;;;;;;;;;;;;;;;21.49;39.52;101848.48;106660;1273;25378;-49
2023/09/09 00:05:31;;;;;;;;;;;;;;;21.48;39.68;101846.75;106631;1263;25384;-48
2023/09/09 00:07:58;;;;;;;;;;;;;;;21.48;39.83;101842.02;106808;1259;25316;-49
2023/09/09 00:10:25;;;;;;;;;;;;;;;21.47;39.99;101842.77;106834;1262;25416;-48
2023/09/09 00:12:52;;;;;;;;;;;;;;;21.47;40.18;101841.55;106736;1260;23987;-50
2023/09/09 00:15:19;;;;;;;;;;;;;;;21.46;40.48;101839.80;106833;1257;25306;-54
2023/09/09 00:17:46;;;;;;;;;;;;;;;21.46;40.79;101836.30;106908;1256;25315;-47
2023/09/09 00:20:14;;;;;;;;;;;;;;;21.46;41.06;101837.70;106813;1267;25319;-50
2023/09/09 00:22:41;;;;;;;;;;;;;;;21.45;41.14;101836.50;106840;1256;22647;-54
2023/09/09 00:25:08;;;;;;;;;;;;;;;21.45;40.80;101836.16;106766;1266;25325;-49
2023/09/09 00:27:35;;;;;;;;;;;;;;;21.44;40.18;101832.83;106743;1267;25393;-51
2023/09/09 00:30:02;;;;;;;;;;;;;;;21.42;39.83;101830.12;106698;1270;22504;-50
2023/09/09 00:32:30;;;;;;;;;;;;;;;21.40;40.07;101823.67;106614;1264;22666;-49
2023/09/09 00:34:57;;;;;;;;;;;;;;;21.37;40.53;101821.88;106468;1263;507858;-48
2023/09/09 00:37:24;;;;;;;;;;;;;;;21.35;41.03;101824.99;106847;1264;25360;-49
2023/09/09 00:39:50;;;;;;;;;;;;;;;21.34;41.38;101824.36;106765;1272;25398;-51
2023/09/09 00:42:17;;;;;;;;;;;;;;;21.32;41.80;101821.80;106936;1269;25315;-51
2023/09/09 00:44:44;;;;;;;;;;;;;;;21.30;42.25;101822.77;106730;1259;25357;-48
2023/09/09 00:47:11;;;;;;;;;;;;;;;21.29;42.65;101820.16;106733;1259;24322;-48
2023/09/09 00:49:38;;;;;;;;;;;;;;;21.28;42.92;101815.63;106803;1270;25344;-51
2023/09/09 00:52:05;;;;;;;;;;;;;;;21.28;43.29;101814.77;106787;1272;25334;-48
2023/09/09 00:54:32;;;;;;;;;;;;;;;21.27;43.58;101808.65;106783;1270;25344;-54
2023/09/09 00:57:00;;;;;;;;;;;;;;;21.27;43.84;101807.95;106696;1259;25373;-49
2023/09/09 00:59:27;;;;;;;;;;;;;;;21.25;43.98;101802.71;106540;1270;25337;-51
2023/09/09 01:01:56;;;;;;;;;;;;;;;21.25;44.15;101803.42;106705;1270;25340;-49
2023/09/09 01:04:23;;;;;;;;;;;;;;;21.25;44.24;101800.81;106676;1270;25306;-48
2023/09/09 01:06:50;;;;;;;;;;;;;;;21.23;44.38;101796.81;106721;1267;25475;-50
2023/09/09 01:09:18;;;;;;;;;;;;;;;21.23;44.68;101794.55;106653;1269;24192;-50
2023/09/09 01:11:44;;;;;;;;;;;;;;;21.22;44.97;101796.18;106520;1267;25396;-49
2023/09/09 01:14:12;;;;;;;;;;;;;;;21.20;45.21;101794.67;106749;1267;25328;-51
2023/09/09 01:16:40;;;;;;;;;;;;;;;21.19;45.49;101793.48;106847;1259;25316;-51
2023/09/09 01:19:07;;;;;;;;;;;;;;;21.19;45.46;101793.69;106808;1270;25316;-51
2023/09/09 01:21:34;;;;;;;;;;;;;;;21.18;45.07;101793.75;106888;1267;25529;-54
2023/09/09 01:24:01;;;;;;;;;;;;;;;21.17;44.87;101793.10;106810;1268;25305;-50
2023/09/09 01:26:29;;;;;;;;;;;;;;;21.15;44.90;101797.44;106848;1267;25486;-48
2023/09/09 01:28:56;;;;;;;;;;;;;;;21.13;45.00;101798.07;106887;1262;23912;-48
2023/09/09 01:31:23;;;;;;;;;;;;;;;21.09;45.12;101798.23;106754;1269;25344;-48
2023/09/09 01:33:55;;;;;;;;;;;;;;;21.06;45.48;101796.95;106872;1267;25452;-51
2023/09/09 01:36:21;;;;;;;;;;;;;;;21.04;45.82;101797.77;106800;1269;24216;-52
2023/09/09 01:38:49;;;;;;;;;;;;;;;21.01;46.00;101792.58;106775;1270;25382;-52
2023/09/09 01:41:16;;;;;;;;;;;;;;;21.00;46.22;101792.11;106583;1262;25316;-49
2023/09/09 01:43:43;;;;;;;;;;;;;;;20.98;46.55;101792.19;106809;1270;25382;-52
2023/09/09 01:46:10;;;;;;;;;;;;;;;20.97;46.89;101789.95;106807;1270;25306;-51
2023/09/09 01:48:37;;;;;;;;;;;;;;;20.97;47.30;101786.78;106825;1270;25325;-52
2023/09/09 01:51:03;;;;;;;;;;;;;;;20.97;47.52;101785.36;106842;1267;22520;-49
2023/09/09 01:53:31;;;;;;;;;;;;;;;20.97;47.90;101784.47;106872;1259;25344;-49
2023/09/09 01:55:58;;;;;;;;;;;;;;;20.98;48.39;101783.01;106714;1269;25530;-49
2023/09/09 01:58:25;;;;;;;;;;;;;;;20.98;48.50;101780.17;106811;1266;25344;-51
2023/09/09 02:00:52;;;;;;;;;;;;;;;21.00;48.53;101781.52;106713;1267;25450;-50
2023/09/09 02:03:19;;;;;;;;;;;;;;;21.01;48.52;101783.95;106725;1265;25315;-49
2023/09/09 02:05:46;;;;;;;;;;;;;;;21.01;48.50;101782.52;106789;1263;25328;-51
2023/09/09 02:08:15;;;;;;;;;;;;;;;21.02;48.59;101777.56;106036;1267;1002983;-51
2023/09/09 02:10:42;;;;;;;;;;;;;;;21.02;48.57;101780.02;106819;1267;25344;-52
2023/09/09 02:13:09;;;;;;;;;;;;;;;21.02;48.54;101782.84;106818;1257;25434;-50
2023/09/09 02:15:36;;;;;;;;;;;;;;;21.02;48.37;101781.07;106880;1268;23205;-49
2023/09/09 02:18:03;;;;;;;;;;;;;;;21.03;48.21;101783.88;106707;1268;25383;-51
2023/09/09 02:20:30;;;;;;;;;;;;;;;21.03;48.19;101780.00;106858;1259;25373;-49
2023/09/09 02:22:58;;;;;;;;;;;;;;;21.02;48.14;101783.20;106839;1267;25462;-50
2023/09/09 02:25:26;;;;;;;;;;;;;;;21.02;48.13;101783.04;106786;1266;22509;-51
2023/09/09 02:27:53;;;;;;;;;;;;;;;21.01;48.19;101782.52;106759;1260;25313;-50
2023/09/09 02:30:21;;;;;;;;;;;;;;;21.01;48.10;101777.94;106806;1268;24226;-50
2023/09/09 02:32:49;;;;;;;;;;;;;;;21.00;48.23;101783.27;106700;1270;25325;-51
2023/09/09 02:35:16;;;;;;;;;;;;;;;20.98;48.31;101784.25;106880;1259;25450;-50
2023/09/09 02:37:43;;;;;;;;;;;;;;;20.97;48.46;101781.67;106827;1268;22520;-49
2023/09/09 02:40:10;;;;;;;;;;;;;;;20.95;48.75;101782.29;106713;1260;25338;-49
2023/09/09 02:42:37;;;;;;;;;;;;;;;20.94;48.72;101781.66;106839;1267;25396;-52
2023/09/09 02:45:04;;;;;;;;;;;;;;;20.92;48.52;101782.42;106523;1271;25256;-50
2023/09/09 02:47:32;;;;;;;;;;;;;;;20.90;48.32;101783.40;106382;1273;25469;-51
2023/09/09 02:49:58;;;;;;;;;;;;;;;20.88;48.34;101779.80;106778;1259;25453;-49
2023/09/09 02:52:25;;;;;;;;;;;;;;;20.86;48.41;101776.20;106731;1259;25357;-53
2023/09/09 02:54:52;;;;;;;;;;;;;;;20.84;48.54;101772.23;106624;1269;25408;-54
2023/09/09 02:57:19;;;;;;;;;;;;;;;20.83;48.81;101773.73;106589;1262;25352;-50
2023/09/09 02:59:47;;;;;;;;;;;;;;;20.81;49.44;101771.66;106642;1270;25390;-50
2023/09/09 03:02:14;;;;;;;;;;;;;;;20.81;49.98;101771.49;106317;1266;25417;-52
2023/09/09 03:04:41;;;;;;;;;;;;;;;20.81;50.21;101771.15;106383;1261;24429;-52
2023/09/09 03:07:09;;;;;;;;;;;;;;;20.82;50.28;101774.98;106703;1269;25462;-50
2023/09/09 03:09:36;;;;;;;;;;;;;;;20.84;50.63;101773.65;106563;1259;25313;-50
2023/09/09 03:12:05;;;;;;;;;;;;;;;20.85;50.94;101771.14;106713;1265;25492;-51
2023/09/09 03:14:32;;;;;;;;;;;;;;;20.86;50.82;101771.08;106684;1268;22801;-52
2023/09/09 03:16:59;;;;;;;;;;;;;;;20.88;50.80;101772.96;103842;1262;1015345;-49
2023/09/09 03:19:26;;;;;;;;;;;;;;;20.89;50.77;101768.81;106843;1262;25473;-51
2023/09/09 03:21:53;;;;;;;;;;;;;;;20.90;50.71;101762.79;106758;1268;25337;-49
2023/09/09 03:24:20;;;;;;;;;;;;;;;20.91;50.74;101760.98;106747;1265;25331;-48
2023/09/09 03:26:47;;;;;;;;;;;;;;;20.91;50.51;101759.73;106821;1267;25341;-53
2023/09/09 03:29:14;;;;;;;;;;;;;;;20.92;50.53;101760.38;106750;1273;25343;-49
2023/09/09 03:31:41;;;;;;;;;;;;;;;20.92;50.26;101759.84;106811;1260;25344;-50
2023/09/09 03:34:08;;;;;;;;;;;;;;;20.92;49.93;101757.55;106825;1259;25370;-49
2023/09/09 03:36:36;;;;;;;;;;;;;;;20.93;49.45;101760.00;106014;1267;1002961;-50
2023/09/09 03:39:03;;;;;;;;;;;;;;;20.93;49.02;101759.45;106751;1265;25356;-51
2023/09/09 03:41:30;;;;;;;;;;;;;;;20.94;48.75;101760.30;106811;1267;25344;-50
2023/09/09 03:43:57;;;;;;;;;;;;;;;20.95;48.43;101760.45;106672;1272;25470;-50
2023/09/09 03:46:24;;;;;;;;;;;;;;;20.94;48.24;101756.57;106618;1278;25338;-49
2023/09/09 03:48:51;;;;;;;;;;;;;;;20.94;48.19;101753.22;106793;1259;25382;-52
2023/09/09 03:51:19;;;;;;;;;;;;;;;20.93;48.26;101752.77;106808;1269;25343;-49
2023/09/09 03:53:47;;;;;;;;;;;;;;;20.91;48.21;101754.25;106750;1259;25383;-52
2023/09/09 03:56:14;;;;;;;;;;;;;;;20.89;48.28;101751.71;106753;1266;25316;-51
2023/09/09 03:58:41;;;;;;;;;;;;;;;20.87;48.43;101750.41;106814;1271;25445;-54
2023/09/09 04:01:08;;;;;;;;;;;;;;;20.85;48.42;101750.34;106381;1272;23337;-50
2023/09/09 04:03:36;;;;;;;;;;;;;;;20.83;48.47;101748.84;106583;1270;25473;-49
2023/09/09 04:06:06;;;;;;;;;;;;;;;20.82;48.56;101742.90;106554;1270;25332;-51
2023/09/09 04:08:33;;;;;;;;;;;;;;;20.80;48.72;101744.38;106688;1259;25402;-54
2023/09/09 04:11:02;;;;;;;;;;;;;;;20.80;48.76;101744.75;106649;1259;25350;-50
2023/09/09 04:13:30;;;;;;;;;;;;;;;20.78;49.05;101741.15;106591;1275;25520;-49
2023/09/09 04:15:58;;;;;;;;;;;;;;;20.77;49.08;101740.67;106593;1259;25347;-48
2023/09/09 04:18:26;;;;;;;;;;;;;;;20.76;49.21;101740.19;105114;1268;1003433;-54
2023/09/09 04:21:10;;;;;;;;;;;;;;;20.73;49.40;101738.41;106493;1263;25320;-52
2023/09/09 04:23:37;;;;;;;;;;;;;;;20.72;49.76;101738.10;106610;1270;25506;-50
2023/09/09 04:26:06;;;;;;;;;;;;;;;20.71;49.91;101736.89;106611;1269;25334;-50
2023/09/09 04:28:33;;;;;;;;;;;;;;;20.74;50.18;101737.84;106606;1268;25372;-52
2023/09/09 04:31:00;;;;;;;;;;;;;;;20.75;50.49;101737.96;106384;1272;25360;-51
2023/09/09 04:33:27;;;;;;;;;;;;;;;20.76;50.74;101738.27;106728;1268;25316;-51
2023/09/09 04:35:55;;;;;;;;;;;;;;;20.78;50.57;101738.86;106877;1268;25371;-49
2023/09/09 04:38:23;;;;;;;;;;;;;;;20.78;50.51;101740.27;106612;1257;23286;-50
2023/09/09 04:40:50;;;;;;;;;;;;;;;20.78;49.46;101741.64;106783;1262;25392;-48
2023/09/09 04:43:18;;;;;;;;;;;;;;;20.83;49.11;101743.36;106770;1268;23884;-52
2023/09/09 04:45:45;;;;;;;;;;;;;;;20.88;48.76;101744.55;106827;1267;25399;-50
2023/09/09 04:48:12;;;;;;;;;;;;;;;20.92;48.58;101746.81;106669;1259;25344;-53
2023/09/09 04:50:39;;;;;;;;;;;;;;;20.96;48.84;101743.61;106518;1268;25214;-50
2023/09/09 04:53:07;;;;;;;;;;;;;;;21.00;48.58;101744.30;106762;1267;25316;-50
2023/09/09 04:55:34;;;;;;;;;;;;;;;21.04;48.41;101740.08;106834;1267;25367;-49
2023/09/09 04:58:02;;;;;;;;;;;;;;;21.09;48.34;101741.24;106822;1259;25456;-52
2023/09/09 05:00:29;;;;;;;;;;;;;;;21.13;47.86;101741.94;106620;1264;22510;-48
2023/09/09 05:02:56;;;;;;;;;;;;;;;21.16;47.65;101741.77;106784;1259;25491;-50
2023/09/09 05:05:23;;;;;;;;;;;;;;;21.20;47.57;101742.45;106763;1265;24182;-49
2023/09/09 05:07:50;;;;;;;;;;;;;;;21.26;47.82;101743.77;106848;1259;25316;-49
2023/09/09 05:10:18;;;;;;;;;;;;;;;21.35;47.22;101747.34;106749;1260;25344;-51
2023/09/09 05:12:46;;;;;;;;;;;;;;;21.41;46.74;101745.80;106778;1258;22540;-49
2023/09/09 05:15:13;;;;;;;;;;;;;;;21.43;46.84;101734.20;106772;1267;25368;-51
2023/09/09 05:17:40;;;;;;;;;;;;;;;21.44;47.16;101735.59;106718;1261;25452;-51
2023/09/09 05:20:08;;;;;;;;;;;;;;;21.46;47.13;101735.63;106784;1267;25329;-52
2023/09/09 05:22:35;;;;;;;;;;;;;;;21.50;47.62;101733.33;106654;1275;25378;-50
2023/09/09 05:25:02;;;;;;;;;;;;;;;21.53;47.67;101734.58;106853;1268;25380;-52
2023/09/09 05:27:30;;;;;;;;;;;;;;;21.57;47.95;101734.91;106809;1267;25341;-50
2023/09/09 05:29:57;;;;;;;;;;;;;;;21.59;47.79;101736.02;106866;1267;25341;-52
2023/09/09 05:32:24;;;;;;;;;;;;;;;21.61;47.50;101739.95;106812;1265;25465;-49
2023/09/09 05:34:51;;;;;;;;;;;;;;;21.64;47.32;101746.52;106720;1270;25386;-50
2023/09/09 05:37:18;;;;;;;;;;;;;;;21.66;46.71;101743.78;106795;1267;25331;-50
2023/09/09 05:39:45;;;;;;;;;;;;;;;21.68;46.38;101742.23;106723;1269;25456;-53
2023/09/09 05:42:12;;;;;;;;;;;;;;;21.70;45.97;101745.33;106768;1268;25337;-51
2023/09/09 05:44:39;;;;;;;;;;;;;;;21.73;46.27;101748.36;106725;1269;25357;-49
2023/09/09 05:47:08;;;;;;;;;;;;;;;21.76;46.21;101748.35;106834;1259;25316;-53
2023/09/09 05:49:35;;;;;;;;;;;;;;;21.79;46.39;101749.61;106740;1259;25802;-49
2023/09/09 05:52:08;;;;;;;;;;;;;;;21.83;46.19;101747.87;106760;1267;22581;-51
2023/09/09 05:54:35;;;;;;;;;;;;;;;21.86;46.35;101752.27;106529;1269;25334;-49
2023/09/09 05:57:02;;;;;;;;;;;;;;;21.91;46.55;101752.89;106823;1269;25306;-50
2023/09/09 05:59:30;;;;;;;;;;;;;;;21.96;46.52;101754.56;106811;1259;25366;-55
2023/09/09 06:01:57;;;;;;;;;;;;;;;22.03;46.23;101755.80;106747;1259;25351;-51
2023/09/09 06:04:24;;;;;;;;;;;;;;;22.11;46.53;101754.80;106471;1270;25317;-51
2023/09/09 06:06:51;;;;;;;;;;;;;;;22.20;46.63;101750.98;106772;1260;23279;-51
2023/09/09 06:09:18;;;;;;;;;;;;;;;22.30;46.64;101747.22;106765;1268;23341;-52
2023/09/09 06:11:45;;;;;;;;;;;;;;;22.42;46.58;101747.80;106827;1256;25315;-50
2023/09/09 06:14:13;;;;;;;;;;;;;;;22.52;45.99;101749.34;106799;1256;25465;-49
2023/09/09 06:16:40;;;;;;;;;;;;;;;22.62;45.04;101749.52;106735;1261;25344;-48
2023/09/09 06:19:07;;;;;;;;;;;;;;;22.70;44.77;101748.73;106756;1262;25315;-52
2023/09/09 06:21:34;;;;;;;;;;;;;;;22.76;44.41;101754.25;106819;1268;25330;-56
2023/09/09 06:24:02;;;;;;;;;;;;;;;22.82;44.34;101755.86;106758;1261;25319;-51
2023/09/09 06:26:33;;;;;;;;;;;;;;;22.90;44.62;101756.63;106717;1262;25380;-50
2023/09/09 06:29:00;;;;;;;;;;;;;;;22.98;44.82;101757.90;106718;1262;23609;-49
2023/09/09 06:31:28;;;;;;;;;;;;;;;23.05;44.38;101757.84;106740;1267;22533;-50
2023/09/09 06:33:56;;;;;;;;;;;;;;;23.11;44.28;101759.09;106735;1262;25411;-51
2023/09/09 06:36:23;;;;;;;;;;;;;;;23.16;44.50;101759.34;106846;1262;25344;-49
2023/09/09 06:38:50;;;;;;;;;;;;;;;23.23;44.69;101761.77;106732;1262;25328;-52
2023/09/09 06:41:17;;;;;;;;;;;;;;;23.29;44.50;101763.51;106790;1259;25461;-50
2023/09/09 06:43:44;;;;;;;;;;;;;;;23.35;44.37;101767.26;106677;1262;25383;-49
2023/09/09 06:46:11;;;;;;;;;;;;;;;23.44;44.55;101764.42;106877;1259;25503;-50
2023/09/09 06:48:38;;;;;;;;;;;;;;;23.47;43.56;101764.43;106903;1267;25334;-54
2023/09/09 06:51:05;;;;;;;;;;;;;;;23.54;43.07;101763.33;106825;1268;25338;-54
2023/09/09 06:53:32;;;;;;;;;;;;;;;23.62;43.34;101764.92;106685;1262;24172;-50
2023/09/09 06:55:59;;;;;;;;;;;;;;;23.71;43.35;101767.20;106730;1269;25321;-50
2023/09/09 06:58:26;;;;;;;;;;;;;;;23.79;43.60;101764.42;106892;1259;25395;-50
2023/09/09 07:00:53;;;;;;;;;;;;;;;23.85;43.89;101764.04;106662;1270;25319;-53
2023/09/09 07:03:20;;;;;;;;;;;;;;;23.93;44.17;101764.77;106823;1256;22521;-50
2023/09/09 07:05:47;;;;;;;;;;;;;;;24.02;44.36;101762.42;106660;1269;22626;-50
2023/09/09 07:08:14;;;;;;;;;;;;;;;24.11;44.51;101764.58;106415;1264;25322;-49
2023/09/09 07:10:48;;;;;;;;;;;;;;;24.22;44.44;101764.59;106495;1270;25393;-49
2023/09/09 07:13:15;;;;;;;;;;;;;;;24.36;44.57;101764.48;106734;1265;25499;-49
2023/09/09 07:15:42;;;;;;;;;;;;;;;24.50;44.47;101764.79;106856;1259;25318;-51
2023/09/09 07:18:09;;;;;;;;;;;;;;;24.61;44.21;101762.79;106617;1262;25335;-49
2023/09/09 07:20:38;;;;;;;;;;;;;;;24.73;43.23;101763.27;106769;1262;25324;-49
2023/09/09 07:23:05;;;;;;;;;;;;;;;24.84;42.04;101759.71;106776;1257;25393;-54
2023/09/09 07:25:32;;;;;;;;;;;;;;;24.97;40.65;101763.65;106804;1268;25340;-50
2023/09/09 07:28:00;;;;;;;;;;;;;;;25.08;39.50;101759.03;107218;1267;25341;-51
2023/09/09 07:30:26;;;;;;;;;;;;;;;25.14;39.11;101761.29;106981;1256;25344;-50
2023/09/09 07:32:53;;;;;;;;;;;;;;;25.18;38.89;101761.73;107074;1259;25420;-50
2023/09/09 07:35:20;;;;;;;;;;;;;;;25.21;39.03;101758.85;107160;1269;23411;-51
2023/09/09 07:37:47;;;;;;;;;;;;;;;25.23;39.52;101757.80;107151;1259;25344;-51
2023/09/09 07:40:18;;;;;;;;;;;;;;;25.26;39.40;101753.56;106867;1262;25344;-50
2023/09/09 07:42:45;;;;;;;;;;;;;;;25.28;39.32;101752.11;106680;1262;24200;-52
2023/09/09 07:45:12;;;;;;;;;;;;;;;25.32;39.33;101753.85;106821;1259;25344;-52
2023/09/09 07:47:39;;;;;;;;;;;;;;;25.35;39.04;101753.30;106825;1260;25333;-49
2023/09/09 07:50:06;;;;;;;;;;;;;;;25.36;39.09;101754.96;106971;1259;25465;-50
2023/09/09 07:52:33;;;;;;;;;;;;;;;25.39;39.05;101751.25;106963;1259;24204;-55
2023/09/09 07:55:00;;;;;;;;;;;;;;;25.40;39.20;101749.20;107110;1271;25450;-50
2023/09/09 07:57:27;;;;;;;;;;;;;;;25.40;39.42;101748.67;106662;1262;25309;-50
2023/09/09 07:59:54;;;;;;;;;;;;;;;25.42;39.47;101741.98;106801;1259;25789;-49
2023/09/09 08:02:21;;;;;;;;;;;;;;;25.46;39.63;101743.48;107065;1259;25471;-50
2023/09/09 08:04:49;;;;;;;;;;;;;;;25.50;39.98;101743.91;106661;1262;24227;-54
2023/09/09 08:07:16;;;;;;;;;;;;;;;25.53;40.33;101741.04;106948;1259;24173;-51
2023/09/09 08:09:43;;;;;;;;;;;;;;;25.56;40.12;101738.37;106884;1269;25315;-49
2023/09/09 08:12:10;;;;;;;;;;;;;;;25.60;39.79;101742.52;106707;1262;22507;-52
2023/09/09 08:14:40;;;;;;;;;;;;;;;25.64;39.34;101739.05;106932;1259;25296;-50
2023/09/09 08:17:07;;;;;;;;;;;;;;;25.68;39.11;101740.37;106831;1262;25504;-52
2023/09/09 08:19:34;;;;;;;;;;;;;;;25.72;38.68;101742.38;106964;1259;22503;-50
2023/09/09 08:22:01;;;;;;;;;;;;;;;25.78;38.08;101744.10;106509;1265;25777;-50
2023/09/09 08:24:28;;;;;;;;;;;;;;;25.84;37.79;101744.57;106730;1262;25316;-53
2023/09/09 08:26:54;;;;;;;;;;;;;;;25.91;38.02;101744.64;106886;1259;25391;-51
2023/09/09 08:29:22;;;;;;;;;;;;;;;25.98;37.95;101736.30;107048;1262;25383;-53
2023/09/09 08:31:49;;;;;;;;;;;;;;;26.03;38.01;101737.38;107183;1256;22755;-54
2023/09/09 08:34:16;;;;;;;;;;;;;;;26.08;37.73;101735.23;107604;1270;23645;-50
2023/09/09 08:36:43;;;;;;;;;;;;;;;26.12;37.78;101734.80;106972;1259;22506;-54
2023/09/09 08:39:11;;;;;;;;;;;;;;;26.16;38.02;101734.30;106937;1261;22631;-50
2023/09/09 08:41:38;;;;;;;;;;;;;;;26.21;37.42;101733.80;106953;1262;25335;-51
2023/09/09 08:44:14;;;;;;;;;;;;;;;26.25;37.53;101732.59;106786;1259;24205;-49
2023/09/09 08:46:41;;;;;;;;;;;;;;;26.29;37.37;101730.73;107004;1269;24173;-52
2023/09/09 08:49:08;;;;;;;;;;;;;;;26.31;37.38;101726.79;107039;1269;23386;-49
2023/09/09 08:51:39;;;;;;;;;;;;;;;26.35;36.82;101729.55;106912;1262;24173;-50
2023/09/09 08:54:07;;;;;;;;;;;;;;;26.38;36.72;101726.14;106816;1267;25327;-50
2023/09/09 08:56:34;;;;;;;;;;;;;;;26.41;36.15;101727.33;106873;1266;25463;-50
2023/09/09 08:59:01;;;;;;;;;;;;;;;26.44;35.72;101724.45;107009;1262;25343;-51
2023/09/09 09:01:28;;;;;;;;;;;;;;;26.47;36.16;101725.27;106900;1257;24360;-50
2023/09/09 09:03:55;;;;;;;;;;;;;;;26.50;36.00;101722.92;106909;1262;23293;-50
2023/09/09 09:06:23;;;;;;;;;;;;;;;26.54;35.59;101721.95;106899;1263;23254;-51
2023/09/09 09:08:50;;;;;;;;;;;;;;;26.58;36.13;101718.39;106807;1258;25323;-50
2023/09/09 09:11:16;;;;;;;;;;;;;;;26.63;36.13;101719.64;107172;1259;22503;-50
2023/09/09 09:13:43;;;;;;;;;;;;;;;26.67;36.72;101720.23;106806;1257;25411;-49
2023/09/09 09:16:11;;;;;;;;;;;;;;;26.72;37.14;101715.30;106956;1259;25374;-50
2023/09/09 09:18:38;;;;;;;;;;;;;;;26.77;37.00;101720.22;106706;1269;25427;-50
2023/09/09 09:21:06;;;;;;;;;;;;;;;26.82;36.74;101717.35;106906;1256;24188;-50
2023/09/09 09:23:34;;;;;;;;;;;;;;;26.88;36.35;101717.42;106728;1260;25453;-50
2023/09/09 09:26:02;;;;;;;;;;;;;;;26.94;35.92;101717.66;106821;1272;25341;-50
2023/09/09 09:28:29;;;;;;;;;;;;;;;27.00;35.44;101716.89;106827;1268;24388;-49
2023/09/09 09:30:56;;;;;;;;;;;;;;;27.05;35.33;101715.59;106708;1272;25372;-50
2023/09/09 09:33:24;;;;;;;;;;;;;;;27.11;35.97;101713.19;106734;1270;25427;-50
2023/09/09 09:35:51;;;;;;;;;;;;;;;27.17;36.09;101714.71;106806;1269;25501;-55
2023/09/09 09:38:17;;;;;;;;;;;;;;;27.24;35.42;101714.68;107105;1259;24283;-50
2023/09/09 09:40:44;;;;;;;;;;;;;;;27.30;34.73;101707.81;106861;1259;25344;-51
2023/09/09 09:43:18;;;;;;;;;;;;;;;27.35;33.94;101707.95;106774;1257;25465;-52
2023/09/09 09:45:45;;;;;;;;;;;;;;;27.41;33.11;101706.80;106986;1257;22511;-49
2023/09/09 09:48:23;;;;;;;;;;;;;;;27.47;32.32;101698.35;106519;1275;25312;-51
2023/09/09 09:50:53;;;;;;;;;;;;;;;27.53;32.31;101698.20;106812;1259;25344;-49
2023/09/09 09:53:21;;;;;;;;;;;;;;;27.60;32.46;101696.23;106774;1262;22983;-51
2023/09/09 09:55:47;;;;;;;;;;;;;;;27.66;32.01;101696.43;106955;1272;25334;-49
2023/09/09 09:58:14;;;;;;;;;;;;;;;27.73;31.53;101689.34;107055;1261;25465;-50
2023/09/09 10:00:41;;;;;;;;;;;;;;;27.78;31.44;101683.70;106895;1259;25296;-50
2023/09/09 10:03:08;;;;;;;;;;;;;;;27.87;31.18;101680.20;106620;1276;25395;-49
2023/09/09 10:05:35;;;;;;;;;;;;;;;27.96;30.10;101672.72;107029;1257;24224;-51
2023/09/09 10:08:27;;;;;;;;;;;;;;;28.05;29.75;101672.52;106790;1263;25344;-52
2023/09/09 10:11:07;;;;;;;;;;;;;;;28.14;30.69;101673.92;106274;1265;24328;-51
2023/09/09 10:13:38;;;;;;;;;;;;;;;28.23;30.39;101671.40;106558;1261;25511;-51
2023/09/09 10:16:07;;;;;;;;;;;;;;;28.31;29.56;101665.18;105932;1272;25454;-53
2023/09/09 10:18:34;;;;;;;;;;;;;;;28.37;29.41;101669.31;106501;1268;22534;-51
2023/09/09 10:21:01;;;;;;;;;;;;;;;28.41;29.45;101671.84;106369;1272;22673;-51
2023/09/09 10:23:28;;;;;;;;;;;;;;;28.44;29.81;101670.34;106147;1268;24226;-50
2023/09/09 10:25:55;;;;;;;;;;;;;;;28.47;30.08;101672.20;106626;1266;25341;-51
2023/09/09 10:28:22;;;;;;;;;;;;;;;28.50;31.38;101671.94;106316;1276;24273;-51
2023/09/09 10:30:49;;;;;;;;;;;;;;;28.54;32.43;101670.58;106351;1278;25399;-50
2023/09/09 10:33:17;;;;;;;;;;;;;;;28.56;32.84;101668.33;106387;1274;25473;-51
2023/09/09 10:35:49;;;;;;;;;;;;;;;28.56;32.97;101669.86;106498;1265;25334;-50
2023/09/09 10:38:15;;;;;;;;;;;;;;;28.57;32.72;101668.74;106816;1268;23869;-50
2023/09/09 10:40:44;;;;;;;;;;;;;;;28.59;33.29;101669.70;106500;1265;25784;-51
2023/09/09 10:43:11;;;;;;;;;;;;;;;28.60;33.84;101667.83;106259;1268;25604;-51
2023/09/09 10:45:41;;;;;;;;;;;;;;;28.60;33.42;101667.96;106586;1265;25220;-51
2023/09/09 10:48:10;;;;;;;;;;;;;;;28.60;32.59;101670.63;106601;1262;24085;-50
2023/09/09 10:50:43;;;;;;;;;;;;;;;28.61;32.56;101666.98;106769;1262;24173;-51
2023/09/09 10:53:28;;;;;;;;;;;;;;;28.64;33.17;101667.95;106894;1260;25215;-52
2023/09/09 10:55:55;;;;;;;;;;;;;;;28.67;33.76;101667.52;106799;1267;25465;-50
2023/09/09 10:58:32;;;;;;;;;;;;;;;28.72;33.90;101665.19;106942;1273;25315;-50
2023/09/09 11:01:02;;;;;;;;;;;;;;;28.76;34.38;101667.45;107042;1257;25330;-50
2023/09/09 11:03:39;;;;;;;;;;;;;;;28.80;34.44;101663.77;106877;1259;22573;-51
2023/09/09 11:06:06;;;;;;;;;;;;;;;28.84;34.59;101661.31;107086;1259;22545;-51
2023/09/09 11:08:37;;;;;;;;;;;;;;;28.86;34.86;101659.16;107202;1263;24191;-51
2023/09/09 11:11:08;;;;;;;;;;;;;;;28.87;34.40;101658.17;106915;1266;25461;-56
2023/09/09 11:13:39;;;;;;;;;;;;;;;28.88;33.79;101655.75;106921;1259;25305;-50
2023/09/09 11:16:06;;;;;;;;;;;;;;;28.90;33.59;101655.07;106977;1264;25331;-50
2023/09/09 11:18:33;;;;;;;;;;;;;;;28.91;33.15;101657.59;106841;1262;25382;-55
2023/09/09 11:21:00;;;;;;;;;;;;;;;28.94;33.19;101651.16;107132;1263;25341;-56
2023/09/09 11:23:28;;;;;;;;;;;;;;;28.95;32.98;101652.77;106779;1271;25466;-49
2023/09/09 11:25:55;;;;;;;;;;;;;;;28.99;33.37;101649.14;107083;1262;22599;-50
2023/09/09 11:28:22;;;;;;;;;;;;;;;29.02;33.42;101651.20;106897;1260;23858;-50
2023/09/09 11:30:49;;;;;;;;;;;;;;;29.05;33.29;101650.09;107031;1270;24195;-53
2023/09/09 11:33:20;;;;;;;;;;;;;;;29.07;33.77;101650.09;106744;1262;25305;-54
2023/09/09 11:35:46;;;;;;;;;;;;;;;29.08;33.71;101653.58;106895;1269;25343;-50
2023/09/09 11:38:14;;;;;;;;;;;;;;;29.08;33.82;101651.96;107121;1263;25502;-52
2023/09/09 11:40:40;;;;;;;;;;;;;;;29.08;32.95;101650.87;106863;1257;25296;-50
2023/09/09 11:43:10;;;;;;;;;;;;;;;29.10;31.83;101650.17;106899;1269;25333;-51
2023/09/09 11:45:37;;;;;;;;;;;;;;;29.12;31.23;101648.76;106736;1269;23733;-50
2023/09/09 11:48:04;;;;;;;;;;;;;;;29.15;30.98;101648.13;106756;1273;24207;-54
2023/09/09 11:50:38;;;;;;;;;;;;;;;29.19;31.05;101646.91;106612;1268;25338;-50
2023/09/09 11:53:05;;;;;;;;;;;;;;;29.22;31.45;101647.86;106783;1266;24208;-55
2023/09/09 11:55:31;;;;;;;;;;;;;;;29.25;31.52;101649.04;106720;1259;25462;-53
2023/09/09 11:57:58;;;;;;;;;;;;;;;29.28;31.55;101646.12;106754;1266;25315;-51
2023/09/09 12:00:26;;;;;;;;;;;;;;;29.29;32.16;101648.50;106821;1269;23309;-55
2023/09/09 12:02:53;;;;;;;;;;;;;;;29.30;32.08;101647.18;106606;1259;22511;-50
2023/09/09 12:05:20;;;;;;;;;;;;;;;29.32;31.66;101645.05;107341;1268;25333;-51
2023/09/09 12:07:46;;;;;;;;;;;;;;;29.35;31.82;101645.48;106863;1262;24227;-54
2023/09/09 12:10:14;;;;;;;;;;;;;;;29.36;32.02;101647.38;106743;1269;25334;-52
2023/09/09 12:12:41;;;;;;;;;;;;;;;29.38;32.60;101648.84;107036;1260;24387;-51
2023/09/09 12:15:09;;;;;;;;;;;;;;;29.40;32.63;101649.91;106954;1263;23204;-52
2023/09/09 12:17:37;;;;;;;;;;;;;;;29.40;32.12;101648.65;106874;1262;25306;-50
2023/09/09 12:20:13;;;;;;;;;;;;;;;29.42;32.47;101650.80;106966;1270;22487;-51
2023/09/09 12:22:47;;;;;;;;;;;;;;;29.44;33.34;101654.16;106490;1278;22628;-48
2023/09/09 12:25:30;;;;;;;;;;;;;;;29.45;33.55;101655.37;106786;1263;25350;-53
2023/09/09 12:27:57;;;;;;;;;;;;;;;29.43;33.05;101658.21;106903;1260;25390;-49